Time;durP1;ratioP1;P1;durP2;ratioP2;P2;SDS_P1;SDS_P2;PMS_P1;PMS_P2;Temp;Humidity;BMP_temperature;BMP_pressure;BME280_temperature;BME280_humidity;BME280_pressure;Samples;Min_cycle;Max_cycle;Signal;HPM_P1;HPM_P2
2021/08/22 00:00:41;;;;;;;13.93;12.28;;;;;;;16.56;71.47;100522.34;1964376;88;28672;-64
2021/08/22 00:03:43;;;;;;;16.62;12.47;;;;;;;16.60;71.52;100522.52;1961901;89;31039;-64
2021/08/22 00:06:44;;;;;;;13.98;11.45;;;;;;;16.62;71.45;100520.56;1961890;89;32360;-64
2021/08/22 00:09:46;;;;;;;18.05;11.85;;;;;;;16.66;71.30;100522.05;1962194;89;30038;-64
2021/08/22 00:12:48;;;;;;;14.53;11.20;;;;;;;16.68;71.21;100523.31;1992566;89;28215;-64
2021/08/22 00:15:50;;;;;;;13.95;11.35;;;;;;;16.70;71.11;100525.42;1994732;89;28678;-64
2021/08/22 00:18:52;;;;;;;14.90;11.80;;;;;;;16.73;71.10;100513.00;1994907;88;31041;-64
2021/08/22 00:21:53;;;;;;;14.47;11.53;;;;;;;16.62;70.94;100488.58;1973797;88;33268;-64
2021/08/22 00:24:55;;;;;;;14.75;12.37;;;;;;;16.77;70.87;100517.23;1974625;88;29379;-64
2021/08/22 00:27:57;;;;;;;14.43;11.63;;;;;;;16.77;70.89;100512.31;2022283;88;27700;-63
2021/08/22 00:30:59;;;;;;;15.50;11.48;;;;;;;16.77;70.80;100511.81;2002554;88;28693;-64
2021/08/22 00:34:00;;;;;;;14.65;12.10;;;;;;;16.77;70.87;100509.11;1961918;89;30479;-64
2021/08/22 00:37:02;;;;;;;14.95;11.45;;;;;;;16.79;70.77;100509.86;1961639;90;33071;-64
2021/08/22 00:40:06;;;;;;;15.65;11.68;;;;;;;16.79;70.84;100509.86;1961992;89;30139;-64
2021/08/22 00:43:08;;;;;;;12.75;10.82;;;;;;;16.80;70.74;100510.24;1994914;89;27733;-64
2021/08/22 00:46:10;;;;;;;15.98;11.50;;;;;;;16.80;70.74;100510.24;1994918;89;28694;-64
2021/08/22 00:49:12;;;;;;;13.80;11.05;;;;;;;16.80;70.67;100506.66;1994843;89;31403;-64
2021/08/22 00:52:14;;;;;;;13.45;10.70;;;;;;;16.80;70.58;100499.42;1994268;89;33194;-63
2021/08/22 00:55:16;;;;;;;14.65;10.63;;;;;;;16.75;70.55;100483.16;1990309;88;29366;-63
2021/08/22 00:58:17;;;;;;;17.80;10.68;;;;;;;16.84;70.49;100496.88;1989673;88;27715;-63
2021/08/22 01:01:23;;;;;;;14.98;11.33;;;;;;;16.84;70.49;100496.88;1977295;88;28696;-63
2021/08/22 01:04:39;;;;;;;16.55;11.63;;;;;;;16.85;70.41;100502.67;1956184;90;31843;-63
2021/08/22 01:07:52;;;;;;;15.30;11.03;;;;;;;16.86;70.43;100504.40;1904165;92;34031;-64
2021/08/22 01:10:58;;;;;;;14.85;10.43;;;;;;;16.86;70.48;100503.52;1902338;93;29518;-63
2021/08/22 01:14:04;;;;;;;14.18;10.68;;;;;;;16.86;70.32;100503.05;1890491;93;27705;-64
2021/08/22 01:17:06;;;;;;;13.83;11.30;;;;;;;16.86;70.23;100488.63;1879470;94;28643;-64
2021/08/22 01:20:41;;;;;;;13.78;10.85;;;;;;;16.86;70.36;100495.40;1896128;93;31046;-64
2021/08/22 01:23:59;;;;;;;11.93;10.67;;;;;;;16.83;70.41;100493.79;1880588;94;32996;-63
2021/08/22 01:27:01;;;;;;;11.22;10.05;;;;;;;16.77;70.32;100492.02;1906700;93;29504;-63
2021/08/22 01:30:10;;;;;;;13.10;11.20;;;;;;;16.73;70.35;100495.42;1907289;93;27707;-63
2021/08/22 01:33:14;;;;;;;15.50;11.43;;;;;;;16.69;70.39;100487.17;1907954;91;29466;-64
2021/08/22 01:36:16;;;;;;;14.00;11.55;;;;;;;16.64;70.37;100487.48;1909278;93;31261;-63
2021/08/22 01:39:19;;;;;;;14.23;11.08;;;;;;;16.60;70.47;100478.36;1908775;93;32939;-63
2021/08/22 01:42:21;;;;;;;11.80;10.55;;;;;;;16.53;70.48;100477.47;1907711;93;29482;-64
2021/08/22 01:45:23;;;;;;;15.25;11.22;;;;;;;16.53;70.48;100477.47;1945977;91;27807;-63
2021/08/22 01:48:25;;;;;;;13.32;11.60;;;;;;;16.49;70.44;100473.24;1956290;89;28640;-63
2021/08/22 01:51:33;;;;;;;12.43;11.15;;;;;;;16.44;70.57;100469.99;1956135;90;31366;-62
2021/08/22 01:54:36;;;;;;;13.60;10.72;;;;;;;16.39;70.61;100473.03;1959322;89;33975;-62
2021/08/22 01:57:43;;;;;;;12.88;10.98;;;;;;;16.35;70.60;100475.58;1962245;89;29356;-62
2021/08/22 02:00:45;;;;;;;13.58;11.70;;;;;;;16.32;70.73;100474.94;1962262;89;27937;-62
2021/08/22 02:03:54;;;;;;;15.32;11.30;;;;;;;16.23;70.75;100474.59;1962200;89;29853;-62
2021/08/22 02:07:13;;;;;;;12.53;10.60;;;;;;;16.18;70.71;100478.13;1965257;89;31203;-62
2021/08/22 02:10:23;;;;;;;14.93;11.40;;;;;;;16.12;70.79;100479.91;1994946;89;33713;-62
2021/08/22 02:13:29;;;;;;;12.73;10.75;;;;;;;16.05;70.92;100477.27;1995306;89;28785;-62
2021/08/22 02:16:32;;;;;;;14.23;11.20;;;;;;;15.98;70.92;100475.95;2007480;88;27804;-62
2021/08/22 02:19:35;;;;;;;14.40;12.10;;;;;;;15.90;71.06;100472.44;1957819;89;28832;-62
2021/08/22 02:22:42;;;;;;;19.75;12.18;;;;;;;15.82;71.32;100467.53;1962254;89;31944;-62
2021/08/22 02:25:44;;;;;;;15.25;12.50;;;;;;;15.76;71.44;100462.55;1962177;89;32929;-62
2021/08/22 02:28:57;;;;;;;13.68;12.25;;;;;;;15.71;71.54;100466.06;1981394;89;29525;-64
2021/08/22 02:31:59;;;;;;;16.60;12.10;;;;;;;15.66;71.44;100459.61;1995071;88;27695;-62
2021/08/22 02:35:01;;;;;;;13.68;11.28;;;;;;;15.60;71.55;100461.40;1994907;88;30039;-63
2021/08/22 02:38:03;;;;;;;18.10;13.05;;;;;;;15.53;71.70;100462.30;1995387;88;31938;-62
2021/08/22 02:41:05;;;;;;;14.43;12.80;;;;;;;15.46;72.39;100457.80;1995134;89;33734;-62
2021/08/22 02:44:07;;;;;;;16.90;12.80;;;;;;;15.39;72.16;100457.83;1977959;88;30530;-63
2021/08/22 02:47:09;;;;;;;14.30;12.78;;;;;;;15.31;72.48;100455.64;1962218;89;27622;-63
2021/08/22 02:50:12;;;;;;;21.68;14.58;;;;;;;15.26;72.50;100447.48;1962110;89;28704;-63
2021/08/22 02:53:13;;;;;;;18.73;13.48;;;;;;;15.20;72.58;100440.66;1962124;89;32081;-63
2021/08/22 02:56:15;;;;;;;15.45;12.88;;;;;;;15.13;72.76;100433.93;1979951;89;33680;-63
2021/08/22 02:59:17;;;;;;;16.17;12.70;;;;;;;15.07;72.80;100432.98;1994627;88;30615;-63
2021/08/22 03:02:20;;;;;;;16.87;12.85;;;;;;;15.02;72.76;100435.52;1994140;88;28399;-63
2021/08/22 03:05:22;;;;;;;16.85;12.95;;;;;;;14.98;72.88;100442.08;1987411;88;28670;-62
2021/08/22 03:08:25;;;;;;;15.13;13.55;;;;;;;14.94;73.14;100441.89;1964075;88;31653;-63
2021/08/22 03:11:28;;;;;;;15.72;13.08;;;;;;;14.91;73.27;100441.23;2022112;88;33031;-63
2021/08/22 03:14:30;;;;;;;15.50;12.53;;;;;;;14.88;73.40;100439.12;2022025;88;29723;-63
2021/08/22 03:17:32;;;;;;;16.67;14.13;;;;;;;14.86;73.28;100437.00;1998253;88;27632;-63
2021/08/22 03:20:34;;;;;;;17.05;14.07;;;;;;;14.84;73.89;100437.58;1994807;89;29463;-63
2021/08/22 03:23:35;;;;;;;15.85;13.93;;;;;;;14.81;73.74;100435.08;1994951;88;31181;-62
2021/08/22 03:26:38;;;;;;;20.92;14.60;;;;;;;14.81;73.92;100440.97;1981376;88;32958;-63
2021/08/22 03:29:40;;;;;;;21.45;14.90;;;;;;;14.80;74.14;100438.77;1952982;90;30697;-63
2021/08/22 03:32:46;;;;;;;15.70;13.85;;;;;;;14.79;74.18;100434.34;1966671;87;27743;-62
2021/08/22 03:35:49;;;;;;;16.70;14.30;;;;;;;14.80;74.11;100436.55;1994825;88;28726;-63
2021/08/22 03:38:52;;;;;;;18.10;14.07;;;;;;;14.80;74.09;100432.50;1994252;89;31046;-62
2021/08/22 03:41:55;;;;;;;21.20;13.95;;;;;;;14.82;74.15;100431.92;1994683;88;33813;-63
2021/08/22 03:44:57;;;;;;;21.55;14.47;;;;;;;14.82;74.35;100430.56;1995494;88;29339;-63
2021/08/22 03:47:59;;;;;;;15.88;14.18;;;;;;;14.82;74.33;100430.07;1970437;89;27731;-63
2021/08/22 03:51:01;;;;;;;24.35;14.35;;;;;;;14.83;74.28;100440.39;1961823;90;28732;-63
2021/08/22 03:54:04;;;;;;;19.57;14.68;;;;;;;14.83;74.31;100433.65;1960762;90;31955;-62
2021/08/22 03:57:06;;;;;;;15.75;14.13;;;;;;;14.83;74.43;100430.95;1961628;89;33015;-62
2021/08/22 04:00:10;;;;;;;19.55;14.15;;;;;;;14.84;74.42;100427.29;1962444;89;29372;-62
2021/08/22 04:03:12;;;;;;;17.55;14.23;;;;;;;14.86;74.71;100428.91;1995180;88;27766;-62
2021/08/22 04:06:14;;;;;;;19.02;14.10;;;;;;;14.88;74.71;100428.33;1994856;88;28746;-62
2021/08/22 04:09:46;;;;;;;15.90;14.25;;;;;;;14.89;74.77;100425.17;1980455;89;31061;-62
2021/08/22 04:12:33;;;;;;;15.80;13.65;;;;;;;14.91;74.76;100428.60;1947471;89;28601;-63
2021/08/22 04:15:35;;;;;;;18.10;14.60;;;;;;;14.94;75.03;100429.75;1961957;90;30075;-63
2021/08/22 04:18:38;;;;;;;18.40;14.07;;;;;;;14.98;74.80;100427.24;1964357;89;27685;-63
2021/08/22 04:21:41;;;;;;;19.30;14.25;;;;;;;15.01;74.76;100427.52;2007123;88;29357;-61
2021/08/22 04:24:44;;;;;;;17.77;13.58;;;;;;;15.07;74.85;100430.28;2021836;88;31476;-61
2021/08/22 04:27:46;;;;;;;19.82;15.00;;;;;;;15.11;74.59;100426.42;2001824;88;33208;-62
2021/08/22 04:30:50;;;;;;;16.75;14.40;;;;;;;15.18;74.61;100434.50;1961583;89;29393;-61
2021/08/22 04:33:52;;;;;;;17.55;13.85;;;;;;;15.24;74.55;100438.12;1961466;89;27700;-61
2021/08/22 04:36:55;;;;;;;17.17;14.15;;;;;;;15.30;74.61;100436.87;1961545;89;30799;-62
2021/08/22 04:39:59;;;;;;;16.25;14.55;;;;;;;15.38;74.46;100431.80;1992828;89;31255;-61
2021/08/22 04:43:01;;;;;;;18.42;14.43;;;;;;;15.47;74.33;100427.11;2019411;88;33948;-62
2021/08/22 04:46:04;;;;;;;19.57;14.50;;;;;;;15.60;74.28;100431.19;2021237;88;29695;-62
2021/08/22 04:49:06;;;;;;;16.10;13.90;;;;;;;15.73;74.18;100428.52;1989648;88;27706;-62
2021/08/22 04:52:08;;;;;;;19.07;14.70;;;;;;;15.87;74.09;100429.42;1962012;89;28720;-62
2021/08/22 04:55:13;;;;;;;17.30;14.20;;;;;;;16.06;74.11;100429.86;1961724;90;31059;-62
2021/08/22 04:58:15;;;;;;;18.12;13.13;;;;;;;16.24;73.88;100430.37;1975257;87;33057;-62
2021/08/22 05:01:18;;;;;;;20.85;14.87;;;;;;;16.43;73.60;100434.46;1981627;87;29352;-62
2021/08/22 05:04:21;;;;;;;20.05;14.03;;;;;;;16.64;73.49;100431.18;2021444;87;27849;-63
2021/08/22 05:07:23;;;;;;;17.00;13.83;;;;;;;16.85;73.18;100433.66;2022218;88;28656;-63
2021/08/22 05:10:26;;;;;;;16.65;13.53;;;;;;;17.01;72.67;100433.91;2021838;88;31912;-63
2021/08/22 05:13:29;;;;;;;15.53;13.50;;;;;;;17.09;72.51;100436.04;2004970;88;34316;-63
2021/08/22 05:16:32;;;;;;;20.55;13.95;;;;;;;17.17;72.37;100443.08;1961970;90;29953;-63
2021/08/22 05:19:39;;;;;;;19.82;14.33;;;;;;;17.25;72.15;100442.50;1961967;89;27704;-63
2021/08/22 05:22:42;;;;;;;13.88;11.60;;;;;;;17.28;71.71;100443.63;1961657;90;29530;-64
2021/08/22 05:25:45;;;;;;;14.53;13.03;;;;;;;17.18;71.53;100420.44;1962061;89;31113;-64
2021/08/22 05:28:47;;;;;;;15.08;12.25;;;;;;;17.31;71.64;100429.36;1980510;89;33339;-64
2021/08/22 05:31:49;;;;;;;20.20;13.15;;;;;;;17.48;71.59;100441.25;1994537;88;30190;-63
2021/08/22 05:34:51;;;;;;;15.60;12.63;;;;;;;17.61;71.50;100440.67;1994995;89;27719;-64
2021/08/22 05:37:53;;;;;;;20.12;14.58;;;;;;;17.76;71.19;100435.42;1967939;89;29585;-64
2021/08/22 05:40:55;;;;;;;16.77;13.13;;;;;;;17.91;71.09;100423.87;1973767;88;31225;-64
2021/08/22 05:43:58;;;;;;;16.25;12.50;;;;;;;18.05;70.99;100428.22;2021757;88;32595;-65
2021/08/22 05:47:01;;;;;;;15.18;12.40;;;;;;;18.25;70.79;100423.57;2010136;88;29490;-64
2021/08/22 05:50:05;;;;;;;15.30;12.37;;;;;;;18.39;70.62;100405.69;1995196;89;27782;-64
2021/08/22 05:53:08;;;;;;;14.35;12.53;;;;;;;18.61;70.34;100416.16;1994924;89;28683;-64
2021/08/22 05:56:10;;;;;;;13.38;11.60;;;;;;;18.84;70.07;100414.26;1994369;88;31754;-63
2021/08/22 05:59:12;;;;;;;15.98;12.37;;;;;;;19.06;69.30;100406.57;1963513;89;33983;-63
2021/08/22 06:02:15;;;;;;;16.97;12.28;;;;;;;19.21;68.75;100404.91;1963487;89;29347;-63
2021/08/22 06:05:19;;;;;;;16.70;12.07;;;;;;;19.31;68.79;100409.06;1972339;87;27858;-63
2021/08/22 06:08:21;;;;;;;16.05;11.90;;;;;;;19.43;68.61;100410.73;1972924;88;29457;-64
2021/08/22 06:11:26;;;;;;;14.40;12.73;;;;;;;19.55;68.39;100417.82;2022151;88;31911;-63
2021/08/22 06:14:28;;;;;;;17.98;15.45;;;;;;;19.68;67.92;100415.43;2000439;88;33471;-63
2021/08/22 06:17:31;;;;;;;12.75;11.45;;;;;;;19.80;68.07;100414.36;2022373;88;29971;-63
2021/08/22 06:20:34;;;;;;;14.98;12.60;;;;;;;20.01;67.89;100416.23;2022076;88;27704;-63
2021/08/22 06:23:37;;;;;;;13.72;11.05;;;;;;;20.19;67.26;100411.02;1984698;88;29919;-62
2021/08/22 06:26:39;;;;;;;14.87;10.98;;;;;;;20.41;67.52;100415.39;1961758;89;32020;-64
2021/08/22 06:29:41;;;;;;;17.02;12.63;;;;;;;20.77;67.28;100412.23;1989323;88;33942;-63
2021/08/22 06:32:43;;;;;;;16.30;11.57;;;;;;;21.22;66.86;100414.94;2019322;87;29951;-63
2021/08/22 06:35:44;;;;;;;13.10;10.88;;;;;;;21.76;66.67;100414.00;1994952;89;27660;-63
2021/08/22 06:38:46;;;;;;;14.05;10.23;;;;;;;22.20;65.33;100407.14;2017075;88;28553;-63
2021/08/22 06:41:49;;;;;;;13.72;10.00;;;;;;;22.68;64.02;100401.11;2021025;88;31705;-63
2021/08/22 06:44:51;;;;;;;13.15;9.25;;;;;;;23.02;63.80;100398.59;2015773;87;33389;-63
2021/08/22 06:47:53;;;;;;;12.90;9.03;;;;;;;23.70;63.04;100392.71;1995044;88;29353;-63
2021/08/22 06:50:56;;;;;;;14.77;8.23;;;;;;;24.70;60.26;100397.22;1995235;88;27728;-63
2021/08/22 06:53:58;;;;;;;11.08;8.78;;;;;;;24.70;60.26;100397.22;1995062;88;28653;-63
2021/08/22 06:56:59;;;;;;;11.10;8.25;;;;;;;25.12;59.96;100398.16;1967645;88;31042;-63
2021/08/22 07:00:01;;;;;;;8.63;7.62;;;;;;;25.55;59.05;100394.46;1961834;89;33090;-64
2021/08/22 07:03:04;;;;;;;9.18;8.28;;;;;;;26.15;59.06;100397.81;2017463;88;29344;-63
2021/08/22 07:06:07;;;;;;;9.35;7.60;;;;;;;26.64;56.16;100396.77;2006147;88;27752;-63
2021/08/22 07:09:08;;;;;;;11.30;7.83;;;;;;;26.78;56.14;100393.76;1994436;88;28511;-64
2021/08/22 07:12:14;;;;;;;8.15;7.35;;;;;;;27.06;55.62;100394.64;1994741;88;30973;-63
2021/08/22 07:15:15;;;;;;;8.70;7.53;;;;;;;27.22;54.30;100390.92;1995017;88;34668;-64
2021/08/22 07:18:17;;;;;;;9.38;7.25;;;;;;;27.37;54.61;100389.08;2012914;88;29387;-65
2021/08/22 07:21:20;;;;;;;10.60;6.90;;;;;;;27.68;52.15;100379.89;2007265;88;27688;-64
2021/08/22 07:24:24;;;;;;;8.65;6.80;;;;;;;27.97;52.84;100380.97;1995387;88;28733;-65
2021/08/22 07:27:26;;;;;;;;;;;;;;;28.35;51.66;100383.66;2024708;88;31001;-64
2021/08/22 07:30:30;;;;;;;6.87;6.17;;;;;;;28.76;51.49;100388.34;2021758;88;32606;-64
2021/08/22 07:33:35;;;;;;;8.63;6.78;;;;;;;29.13;49.57;100395.20;1991186;88;29620;-64
2021/08/22 07:36:38;;;;;;;9.03;6.85;;;;;;;29.39;48.60;100389.97;1962044;89;27644;-63
2021/08/22 07:39:40;;;;;;;7.37;6.58;;;;;;;29.55;48.55;100394.88;1961691;89;29645;-64
2021/08/22 07:42:42;;;;;;;7.12;6.10;;;;;;;29.91;47.66;100393.89;1962096;89;31055;-63
2021/08/22 07:45:44;;;;;;;7.83;6.22;;;;;;;30.10;47.51;100390.98;1962047;89;32974;-64
2021/08/22 07:48:45;;;;;;;8.65;6.20;;;;;;;30.43;45.83;100388.06;1966954;87;28773;-64
2021/08/22 07:51:47;;;;;;;6.25;5.60;;;;;;;30.72;46.61;100387.45;1994935;88;27720;-64
2021/08/22 07:54:49;;;;;;;6.92;5.90;;;;;;;31.00;43.83;100386.50;1968327;88;28659;-64
2021/08/22 07:57:51;;;;;;;5.47;4.72;;;;;;;31.18;45.19;100385.91;1961649;89;31092;-64
2021/08/22 08:00:53;;;;;;;5.17;4.67;;;;;;;31.46;44.49;100384.34;1969479;87;33819;-64
2021/08/22 08:03:55;;;;;;;8.40;5.05;;;;;;;31.71;43.46;100385.65;1994557;88;29341;-64
2021/08/22 08:06:57;;;;;;;7.80;5.17;;;;;;;32.03;43.65;100385.81;1994010;88;27765;-63
2021/08/22 08:09:59;;;;;;;5.25;4.75;;;;;;;32.39;42.47;100380.31;2009807;88;29448;-62
2021/08/22 08:13:01;;;;;;;5.25;4.75;;;;;;;32.58;41.87;100384.06;2022154;88;31848;-63
2021/08/22 08:16:04;;;;;;;7.50;4.20;;;;;;;32.67;38.47;100379.11;2022299;88;33139;-62
2021/08/22 08:19:05;;;;;;;5.83;4.53;;;;;;;32.55;40.60;100383.11;2022256;88;28772;-64
2021/08/22 08:22:10;;;;;;;5.53;4.80;;;;;;;32.79;40.46;100386.21;1976605;88;28159;-65
2021/08/22 08:25:12;;;;;;;7.17;4.25;;;;;;;33.05;40.22;100380.20;1961515;89;28840;-64
2021/08/22 08:28:14;;;;;;;6.03;4.50;;;;;;;33.08;39.84;100383.93;1961739;90;30938;-64
2021/08/22 08:31:17;;;;;;;5.42;4.60;;;;;;;32.91;39.53;100378.91;1973132;89;33197;-65
2021/08/22 08:34:18;;;;;;;5.55;4.45;;;;;;;33.01;39.74;100382.03;1997753;88;30121;-63
2021/08/22 08:37:20;;;;;;;4.50;4.12;;;;;;;33.23;39.65;100373.91;1981739;87;27805;-64
2021/08/22 08:40:23;;;;;;;4.40;4.00;;;;;;;33.41;38.98;100369.84;1975439;89;28684;-64
2021/08/22 08:43:29;;;;;;;5.08;4.50;;;;;;;33.46;39.11;100366.39;1987071;89;31013;-64
2021/08/22 08:46:52;;;;;;;4.20;3.80;;;;;;;33.56;38.14;100365.32;1980284;88;33131;-65
2021/08/22 08:50:31;;;;;;;4.72;4.28;;;;;;;33.45;37.14;100361.91;1986016;89;29526;-63
2021/08/22 08:53:50;;;;;;;4.83;3.95;;;;;;;33.26;37.78;100364.58;1968550;88;27666;-63
2021/08/22 08:56:53;;;;;;;4.72;4.20;;;;;;;33.36;37.87;100362.73;1919462;91;28668;-64
2021/08/22 08:59:54;;;;;;;5.80;5.30;;;;;;;33.30;37.50;100364.45;1923034;91;32053;-64
2021/08/22 09:02:56;;;;;;;5.05;4.22;;;;;;;32.94;36.73;100365.11;1947088;90;33088;-64
2021/08/22 09:06:29;;;;;;;5.15;4.50;;;;;;;32.85;37.02;100359.84;1947746;91;29344;-64
2021/08/22 09:10:26;;;;;;;7.90;7.08;;;;;;;32.72;37.21;100352.95;1945196;91;27731;-65
2021/08/22 09:14:24;;;;;;;5.05;4.55;;;;;;;32.50;34.85;100347.72;1949490;90;28677;-64
2021/08/22 09:18:21;;;;;;;3.90;3.58;;;;;;;32.13;35.79;100351.04;1947549;91;32358;-65
2021/08/22 09:22:05;;;;;;;8.28;3.50;;;;;;;31.59;36.00;100343.34;1930101;90;33378;-65
2021/08/22 09:25:49;;;;;;;5.15;3.60;;;;;;;31.35;36.76;100345.68;1948814;91;29445;-65
2021/08/22 09:29:45;;;;;;;3.55;3.25;;;;;;;31.41;36.63;100337.60;1949519;91;27704;-65
2021/08/22 09:33:41;;;;;;;3.92;3.52;;;;;;;31.42;37.26;100342.07;1972465;89;29576;-64
2021/08/22 09:37:12;;;;;;;3.55;3.25;;;;;;;31.38;36.90;100343.01;1987709;88;32007;-62
2021/08/22 09:41:09;;;;;;;3.80;3.30;;;;;;;31.32;36.97;100348.03;1969265;88;33106;-63
2021/08/22 09:45:05;;;;;;;3.72;3.40;;;;;;;31.20;36.51;100343.66;1988001;89;29331;-64
2021/08/22 09:49:02;;;;;;;4.03;3.72;;;;;;;31.05;36.93;100340.52;1963672;89;27658;-64
2021/08/22 09:52:38;;;;;;;3.70;3.30;;;;;;;30.86;36.90;100335.26;1990564;89;29558;-65
2021/08/22 09:55:48;;;;;;;3.58;3.25;;;;;;;30.69;36.47;100333.97;1994385;88;31034;-64
2021/08/22 09:59:42;;;;;;;3.70;3.40;;;;;;;30.45;35.29;100326.52;1965382;88;33627;-64
2021/08/22 10:03:14;;;;;;;5.12;3.58;;;;;;;30.25;36.80;100331.97;1965465;89;29519;-64
2021/08/22 10:06:47;;;;;;;4.85;3.40;;;;;;;30.28;36.08;100325.48;1941210;89;27770;-64
2021/08/22 10:10:02;;;;;;;8.63;4.10;;;;;;;30.15;36.99;100328.20;1964814;90;28682;-64
2021/08/22 10:13:04;;;;;;;5.05;3.83;;;;;;;30.13;36.87;100321.48;1964583;89;31949;-77
2021/08/22 10:16:06;;;;;;;4.10;3.70;;;;;;;30.24;36.83;100320.58;1957734;90;33112;-77
2021/08/22 10:19:09;;;;;;;3.87;3.47;;;;;;;30.10;36.52;100315.00;1940500;90;29380;-79
2021/08/22 10:22:32;;;;;;;4.70;4.10;;;;;;;30.07;36.54;100314.02;1946091;89;27792;-79
2021/08/22 10:25:48;;;;;;;7.85;3.62;;;;;;;30.14;37.57;100309.36;1939064;90;29534;-76
2021/08/22 10:29:01;;;;;;;5.05;3.35;;;;;;;30.28;37.44;100301.16;1921710;90;31366;-79
2021/08/22 10:32:04;;;;;;;3.75;3.42;;;;;;;30.33;37.75;100304.67;1917576;90;33289;-77
2021/08/22 10:35:20;;;;;;;3.72;3.22;;;;;;;30.39;37.85;100303.83;1921150;92;29259;-79
2021/08/22 10:38:29;;;;;;;5.58;3.60;;;;;;;30.34;37.26;100305.00;1921714;92;27788;-78
2021/08/22 10:41:35;;;;;;;4.90;3.15;;;;;;;30.43;37.69;100300.98;1916289;91;28832;-76
2021/08/22 10:44:40;;;;;;;3.72;3.10;;;;;;;30.68;37.76;100294.93;1877810;94;30931;-79
2021/08/22 10:47:43;;;;;;;4.78;3.35;;;;;;;30.89;37.35;100297.50;1874826;94;33755;-79
2021/08/22 10:51:04;;;;;;;4.50;2.90;;;;;;;31.07;37.42;100292.75;1917800;92;37335;-77
2021/08/22 10:54:18;;;;;;;3.20;2.90;;;;;;;31.20;37.44;100287.75;1918861;91;27746;-78
2021/08/22 10:57:49;;;;;;;;;;;;;;;31.33;37.57;100295.76;1920033;91;28707;-80
2021/08/22 11:00:57;;;;;;;3.70;3.40;;;;;;;31.36;36.72;100293.92;1903266;92;46514;-77
2021/08/22 11:04:22;;;;;;;5.33;3.35;;;;;;;31.47;37.21;100288.27;1920302;91;33040;-76
2021/08/22 11:07:26;;;;;;;7.72;2.85;;;;;;;31.60;37.32;100286.02;1985366;88;30389;-77
2021/08/22 11:10:28;;;;;;;3.00;2.80;;;;;;;31.75;37.04;100282.50;1990017;88;27740;-77
2021/08/22 11:13:37;;;;;;;2.47;2.27;;;;;;;31.79;36.76;100280.14;2003551;88;28077;-79
2021/08/22 11:16:49;;;;;;;4.80;2.98;;;;;;;31.75;37.10;100275.58;2003143;87;32223;-77
2021/08/22 11:19:50;;;;;;;5.83;2.92;;;;;;;31.74;36.90;100265.56;2002316;86;33137;-80
2021/08/22 11:23:18;;;;;;;3.42;3.10;;;;;;;31.67;36.54;100269.70;2001320;88;29341;-82
2021/08/22 11:26:21;;;;;;;5.80;3.08;;;;;;;31.63;36.57;100267.59;1970248;88;27770;-79
2021/08/22 11:29:23;;;;;;;2.92;2.70;;;;;;;31.54;36.55;100260.05;1997740;88;28642;-79
2021/08/22 11:32:27;;;;;;;3.40;3.10;;;;;;;31.48;36.61;100267.31;1988774;87;31026;-79
2021/08/22 11:35:29;;;;;;;3.55;2.95;;;;;;;31.30;36.52;100260.20;1972077;88;33008;-74
2021/08/22 11:38:31;;;;;;;4.92;4.50;;;;;;;31.32;36.97;100257.52;1990737;88;30111;-76
2021/08/22 11:41:34;;;;;;;3.58;3.27;;;;;;;31.43;36.73;100252.41;1970062;89;27644;-78
2021/08/22 11:44:36;;;;;;;3.75;2.95;;;;;;;31.38;36.37;100257.19;1970171;88;28707;-75
2021/08/22 11:47:39;;;;;;;7.58;6.87;;;;;;;31.30;35.96;100258.81;1995641;88;31004;-76
2021/08/22 11:50:48;;;;;;;5.47;4.50;;;;;;;31.20;36.16;100256.47;1995947;88;33817;-75
2021/08/22 11:53:50;;;;;;;5.10;3.40;;;;;;;31.18;36.62;100254.45;1971554;88;29343;-77
2021/08/22 11:57:00;;;;;;;5.05;3.20;;;;;;;31.07;35.74;100249.86;1970245;88;27724;-76
2021/08/22 12:00:11;;;;;;;4.40;2.87;;;;;;;30.85;35.64;100243.69;1969176;88;28712;-76
2021/08/22 12:03:16;;;;;;;3.22;2.92;;;;;;;30.70;36.29;100248.53;1970176;88;31219;-76
2021/08/22 12:06:29;;;;;;;3.17;2.87;;;;;;;30.71;36.66;100239.17;1978212;88;32978;-76
2021/08/22 12:09:32;;;;;;;4.35;2.70;;;;;;;30.81;36.75;100240.14;1981652;87;29406;-75
2021/08/22 12:12:40;;;;;;;3.15;2.90;;;;;;;30.77;36.28;100234.19;1973424;88;28184;-78
2021/08/22 12:15:45;;;;;;;4.10;2.70;;;;;;;30.79;36.06;100227.05;1974519;88;28706;-77
2021/08/22 12:18:50;;;;;;;4.05;2.45;;;;;;;30.79;36.29;100227.05;1969696;88;31142;-78
2021/08/22 12:21:53;;;;;;;3.00;2.80;;;;;;;30.73;36.65;100221.33;1971825;88;33151;-76
2021/08/22 12:24:58;;;;;;;3.15;2.85;;;;;;;30.68;36.15;100221.64;1969779;90;29341;-75
2021/08/22 12:28:21;;;;;;;4.28;2.90;;;;;;;30.50;35.93;100216.68;1954708;89;27687;-74
2021/08/22 12:31:42;;;;;;;2.75;2.55;;;;;;;30.45;36.64;100199.34;1984894;88;28713;-77
2021/08/22 12:34:44;;;;;;;3.65;3.00;;;;;;;30.38;36.70;100203.48;1998776;88;31199;-75
2021/08/22 12:37:46;;;;;;;4.75;3.17;;;;;;;30.28;36.88;100205.81;1998023;87;33016;-70
2021/08/22 12:40:48;;;;;;;4.28;3.70;;;;;;;30.22;37.11;100196.96;1996317;87;29338;-76
2021/08/22 12:43:51;;;;;;;7.10;4.70;;;;;;;30.22;37.56;100198.34;1969942;88;27782;-77
2021/08/22 12:46:59;;;;;;;4.62;4.00;;;;;;;30.17;37.70;100198.98;1990594;88;29648;-81
2021/08/22 12:50:03;;;;;;;3.85;3.12;;;;;;;30.12;37.99;100205.64;2002901;87;31036;-81
2021/08/22 12:53:05;;;;;;;5.12;4.22;;;;;;;30.04;38.14;100208.06;1992664;87;34843;-80
2021/08/22 12:56:08;;;;;;;5.55;3.60;;;;;;;29.90;38.32;100194.69;1978186;88;30091;-76
2021/08/22 12:59:10;;;;;;;4.25;3.60;;;;;;;29.76;38.66;100195.19;1979118;88;27723;-75
2021/08/22 13:02:12;;;;;;;7.50;3.08;;;;;;;29.58;39.44;100203.16;1952476;90;28352;-75
2021/08/22 13:05:14;;;;;;;5.20;3.08;;;;;;;29.32;39.46;100208.28;1951219;90;31249;-76
2021/08/22 13:08:16;;;;;;;4.45;2.92;;;;;;;29.07;39.70;100205.14;1956297;90;33006;-75
2021/08/22 13:11:20;;;;;;;8.73;3.50;;;;;;;28.84;40.46;100217.25;1941627;90;29325;-75
2021/08/22 13:14:22;;;;;;;;;;;;;;;28.64;41.67;100232.20;1967169;89;27807;-74
2021/08/22 13:17:23;;;;;;;3.65;3.33;;;;;;;28.33;42.27;100243.02;1959167;90;29496;-75
2021/08/22 13:20:25;;;;;;;4.22;3.33;;;;;;;28.02;42.80;100256.50;1940398;90;31093;-74
2021/08/22 13:23:28;;;;;;;3.83;3.35;;;;;;;27.73;43.48;100266.47;1952180;90;32968;-74
2021/08/22 13:26:30;;;;;;;9.70;4.05;;;;;;;27.37;44.52;100290.58;1928954;90;29342;-70
2021/08/22 13:29:32;;;;;;;5.62;4.30;;;;;;;27.03;45.84;100295.50;1951822;90;27644;-70
2021/08/22 13:32:33;;;;;;;6.33;3.67;;;;;;;26.68;46.93;100289.55;1959750;90;29465;-71
2021/08/22 13:35:35;;;;;;;8.18;4.42;;;;;;;26.29;47.20;100285.00;1957555;90;31025;-70
2021/08/22 13:38:37;;;;;;;4.78;3.67;;;;;;;25.84;47.89;100278.63;1950429;90;33179;-70
2021/08/22 13:41:39;;;;;;;4.45;3.92;;;;;;;25.40;49.11;100266.72;1929678;90;29503;-63
2021/08/22 13:44:41;;;;;;;5.12;3.27;;;;;;;25.00;49.45;100275.66;1927848;90;27666;-62
2021/08/22 13:47:43;;;;;;;5.40;3.87;;;;;;;24.74;50.61;100290.88;1939791;90;29904;-61
2021/08/22 13:50:45;;;;;;;5.92;5.05;;;;;;;24.51;51.00;100306.58;1935488;90;31881;-63
2021/08/22 13:53:47;;;;;;;6.03;3.45;;;;;;;24.28;51.70;100311.81;1959340;89;34174;-64
2021/08/22 13:56:50;;;;;;;3.80;3.40;;;;;;;24.02;52.03;100306.41;1957849;89;30311;-63
2021/08/22 13:59:52;;;;;;;4.17;3.60;;;;;;;23.78;52.87;100299.25;1971116;89;27718;-63
2021/08/22 14:02:57;;;;;;;4.42;3.00;;;;;;;23.51;53.39;100291.55;1985713;89;28701;-65
2021/08/22 14:05:59;;;;;;;5.55;3.33;;;;;;;23.25;53.82;100303.00;1994858;88;31032;-62
2021/08/22 14:09:01;;;;;;;5.85;4.20;;;;;;;23.04;54.45;100304.16;1994931;88;33583;-63
2021/08/22 14:12:05;;;;;;;6.08;3.60;;;;;;;22.86;55.18;100300.08;1967164;88;30554;-63
2021/08/22 14:15:09;;;;;;;6.33;3.52;;;;;;;22.75;55.72;100292.98;1962016;90;30565;-63
2021/08/22 14:18:14;;;;;;;6.65;3.98;;;;;;;22.66;56.27;100272.08;1962034;89;29509;-63